Time;durP1;ratioP1;P1;durP2;ratioP2;P2;SDS_P1;SDS_P2;PMS_P1;PMS_P2;Temp;Humidity;BMP_temperature;BMP_pressure;BME280_temperature;BME280_humidity;BME280_pressure;Samples;Min_cycle;Max_cycle;Signal;HPM_P1;HPM_P2
2023/09/13 00:00:54;;;;;;;13.20;11.82;;;;;;;;;;5016511;28;20029;-74
2023/09/13 00:03:19;;;;;;;12.02;10.93;;;;;;;;;;4998337;28;20038;-73
2023/09/13 00:05:46;;;;;;;12.80;11.57;;;;;;;;;;5003242;28;20125;-74
2023/09/13 00:08:11;;;;;;;12.40;10.63;;;;;;;;;;5000057;28;20056;-74
2023/09/13 00:10:37;;;;;;;12.20;10.98;;;;;;;;;;5004629;28;20143;-74
2023/09/13 00:13:03;;;;;;;12.18;11.13;;;;;;;;;;5001460;28;20054;-74
2023/09/13 00:15:28;;;;;;;11.85;10.88;;;;;;;;;;5001570;28;20033;-74
2023/09/13 00:17:54;;;;;;;12.15;11.07;;;;;;;;;;5001192;28;20117;-74
2023/09/13 00:20:19;;;;;;;12.48;11.32;;;;;;;;;;4994679;28;20421;-74
2023/09/13 00:22:45;;;;;;;12.32;11.15;;;;;;;;;;5000933;28;20037;-74
2023/09/13 00:25:11;;;;;;;12.95;11.82;;;;;;;;;;4999167;28;20577;-74
2023/09/13 00:27:36;;;;;;;12.57;11.32;;;;;;;;;;5001187;28;20634;-74
2023/09/13 00:30:02;;;;;;;13.13;11.82;;;;;;;;;;5001582;28;20587;-74
2023/09/13 00:32:30;;;;;;;13.38;12.18;;;;;;;;;;5016199;28;20030;-74
2023/09/13 00:34:55;;;;;;;13.77;11.77;;;;;;;;;;5014742;28;20058;-74
2023/09/13 00:37:21;;;;;;;14.40;12.95;;;;;;;;;;5013785;28;20523;-74
2023/09/13 00:39:46;;;;;;;15.05;13.65;;;;;;;;;;5002544;28;20034;-74
2023/09/13 00:42:12;;;;;;;16.02;14.43;;;;;;;;;;4996972;28;20049;-74
2023/09/13 00:44:38;;;;;;;18.00;16.08;;;;;;;;;;4999834;28;20100;-75
2023/09/13 00:47:03;;;;;;;17.13;15.65;;;;;;;;;;4990063;28;20031;-75
2023/09/13 00:49:29;;;;;;;17.15;15.55;;;;;;;;;;5018418;28;20171;-74
2023/09/13 00:51:57;;;;;;;18.55;16.25;;;;;;;;;;5002493;28;20803;-74
2023/09/13 00:54:23;;;;;;;19.08;17.08;;;;;;;;;;4999362;28;21353;-74
2023/09/13 00:56:49;;;;;;;17.90;16.02;;;;;;;;;;5016216;28;20037;-74
2023/09/13 00:59:15;;;;;;;20.17;18.17;;;;;;;;;;5001796;28;20412;-74
2023/09/13 01:01:40;;;;;;;22.25;19.55;;;;;;;;;;4992731;28;20060;-73
2023/09/13 01:04:06;;;;;;;20.63;18.50;;;;;;;;;;4997371;28;20030;-73
2023/09/13 01:06:33;;;;;;;22.88;18.35;;;;;;;;;;4995909;28;20038;-74
2023/09/13 01:09:03;;;;;;;21.40;18.15;;;;;;;;;;4991851;28;20153;-74
2023/09/13 01:11:29;;;;;;;20.70;18.55;;;;;;;;;;5011020;28;20045;-73
2023/09/13 01:13:55;;;;;;;21.73;18.70;;;;;;;;;;4996331;28;20613;-73
2023/09/13 01:16:30;;;;;;;19.67;17.70;;;;;;;;;;5000740;28;20040;-73
2023/09/13 01:18:59;;;;;;;18.77;17.00;;;;;;;;;;5000286;28;20084;-73
2023/09/13 01:21:55;;;;;;;19.13;16.90;;;;;;;;;;4998677;28;20825;-73
2023/09/13 01:24:56;;;;;;;19.15;17.25;;;;;;;;;;4996321;28;20579;-74
2023/09/13 01:27:53;;;;;;;24.55;19.38;;;;;;;;;;4998997;28;20042;-73
2023/09/13 01:30:19;;;;;;;22.08;17.90;;;;;;;;;;4999657;28;20073;-74
2023/09/13 01:32:46;;;;;;;22.98;18.48;;;;;;;;;;4996060;28;20040;-74
2023/09/13 01:35:12;;;;;;;21.50;19.38;;;;;;;;;;4989634;28;20045;-74
2023/09/13 01:37:38;;;;;;;21.30;19.00;;;;;;;;;;4997671;28;20108;-73
2023/09/13 01:40:06;;;;;;;19.75;17.90;;;;;;;;;;4993823;28;20073;-74
2023/09/13 01:42:35;;;;;;;20.42;18.27;;;;;;;;;;5013274;28;20030;-74
2023/09/13 01:45:01;;;;;;;;;;;;;;;;;;4997242;28;20038;-74
2023/09/13 01:47:29;;;;;;;19.38;17.38;;;;;;;;;;5011083;28;19913;-74
2023/09/13 01:49:56;;;;;;;21.27;17.00;;;;;;;;;;5011521;28;20675;-74
2023/09/13 01:52:22;;;;;;;19.52;17.58;;;;;;;;;;5000400;28;20088;-73
2023/09/13 01:54:48;;;;;;;19.60;17.15;;;;;;;;;;4998278;28;20041;-74
2023/09/13 01:57:14;;;;;;;18.50;16.70;;;;;;;;;;4993239;28;20037;-73
2023/09/13 01:59:40;;;;;;;20.13;17.02;;;;;;;;;;4997829;28;20112;-74
2023/09/13 02:02:05;;;;;;;20.55;18.20;;;;;;;;;;4999334;28;20489;-73
2023/09/13 02:04:33;;;;;;;23.33;18.40;;;;;;;;;;5015675;28;20038;-74
2023/09/13 02:07:03;;;;;;;19.15;17.38;;;;;;;;;;5018784;28;20393;-74
2023/09/13 02:09:29;;;;;;;19.52;17.17;;;;;;;;;;4996583;28;20088;-73
2023/09/13 02:11:55;;;;;;;19.80;17.60;;;;;;;;;;4999832;28;20128;-74
2023/09/13 02:14:20;;;;;;;19.17;17.15;;;;;;;;;;5012701;28;20117;-74
2023/09/13 02:16:46;;;;;;;21.05;18.75;;;;;;;;;;5013251;28;20058;-74
2023/09/13 02:19:12;;;;;;;21.30;19.10;;;;;;;;;;4998005;28;20414;-74
2023/09/13 02:21:37;;;;;;;23.10;17.90;;;;;;;;;;4997684;28;20034;-74
2023/09/13 02:24:05;;;;;;;21.05;18.73;;;;;;;;;;5000149;28;20121;-74
2023/09/13 02:26:31;;;;;;;21.88;19.02;;;;;;;;;;4986774;28;20217;-74
2023/09/13 02:28:57;;;;;;;23.50;17.98;;;;;;;;;;5014249;28;20645;-74
2023/09/13 02:31:24;;;;;;;21.60;18.75;;;;;;;;;;5001438;28;20121;-74
2023/09/13 02:33:51;;;;;;;21.63;19.13;;;;;;;;;;5010272;28;20044;-73
2023/09/13 02:36:17;;;;;;;23.85;19.33;;;;;;;;;;4998051;28;20720;-74
2023/09/13 02:38:42;;;;;;;21.58;19.13;;;;;;;;;;4999485;28;20112;-73
2023/09/13 02:41:08;;;;;;;22.58;18.75;;;;;;;;;;5002736;28;20038;-73
2023/09/13 02:43:33;;;;;;;20.25;18.15;;;;;;;;;;4993412;28;20117;-73
2023/09/13 02:45:59;;;;;;;18.40;16.58;;;;;;;;;;4997574;28;20038;-74
2023/09/13 02:48:25;;;;;;;19.15;16.95;;;;;;;;;;4992828;28;20044;-73
2023/09/13 02:50:51;;;;;;;18.95;16.92;;;;;;;;;;4997073;28;20511;-74
2023/09/13 02:53:17;;;;;;;20.38;18.27;;;;;;;;;;4991229;28;20030;-73
2023/09/13 02:55:42;;;;;;;25.25;17.90;;;;;;;;;;5002632;28;20044;-74
2023/09/13 02:58:08;;;;;;;22.27;19.27;;;;;;;;;;5001314;28;20110;-74
2023/09/13 03:00:35;;;;;;;22.85;19.80;;;;;;;;;;5002928;28;20141;-74
2023/09/13 03:03:01;;;;;;;19.95;17.95;;;;;;;;;;5017222;28;20155;-74
2023/09/13 03:05:26;;;;;;;20.40;18.25;;;;;;;;;;5017703;28;20116;-74
2023/09/13 03:07:54;;;;;;;22.00;17.58;;;;;;;;;;5015116;28;20602;-74
2023/09/13 03:10:20;;;;;;;19.60;17.42;;;;;;;;;;4983048;28;20030;-74
2023/09/13 03:12:46;;;;;;;21.02;16.75;;;;;;;;;;4992184;28;20442;-75
2023/09/13 03:15:11;;;;;;;18.33;16.55;;;;;;;;;;4995716;28;20099;-74
2023/09/13 03:17:37;;;;;;;20.45;17.98;;;;;;;;;;5005481;28;20096;-74
2023/09/13 03:20:03;;;;;;;19.38;17.33;;;;;;;;;;4996776;28;20034;-75
2023/09/13 03:22:32;;;;;;;19.65;17.63;;;;;;;;;;4982120;28;20037;-75
2023/09/13 03:24:57;;;;;;;20.63;18.45;;;;;;;;;;5005042;28;20489;-74
2023/09/13 03:27:23;;;;;;;20.30;18.08;;;;;;;;;;5002605;28;20463;-74
2023/09/13 03:29:48;;;;;;;20.50;18.30;;;;;;;;;;5012836;28;20048;-74
2023/09/13 03:32:14;;;;;;;19.70;17.75;;;;;;;;;;5005636;28;20061;-74
2023/09/13 03:34:40;;;;;;;19.42;17.52;;;;;;;;;;5016395;28;20148;-74
2023/09/13 03:37:06;;;;;;;20.63;18.55;;;;;;;;;;5006251;28;20409;-74
2023/09/13 03:39:32;;;;;;;22.88;19.80;;;;;;;;;;5000754;28;20497;-74
2023/09/13 03:41:58;;;;;;;22.75;20.33;;;;;;;;;;5019885;28;20070;-75
2023/09/13 03:44:24;;;;;;;25.40;20.73;;;;;;;;;;4984938;28;20069;-74
2023/09/13 03:46:50;;;;;;;26.42;20.63;;;;;;;;;;4999318;28;20548;-74
2023/09/13 03:49:15;;;;;;;22.83;19.33;;;;;;;;;;5017105;28;20536;-74
2023/09/13 03:51:41;;;;;;;25.65;19.52;;;;;;;;;;4996816;28;20038;-75
2023/09/13 03:54:07;;;;;;;23.25;20.95;;;;;;;;;;5001417;28;20152;-75
2023/09/13 03:56:32;;;;;;;23.27;20.45;;;;;;;;;;4998491;28;20576;-74
2023/09/13 03:58:58;;;;;;;22.30;19.80;;;;;;;;;;5003465;28;20048;-74
2023/09/13 04:01:24;;;;;;;20.95;18.83;;;;;;;;;;5003006;28;20037;-74
2023/09/13 04:03:50;;;;;;;21.92;19.67;;;;;;;;;;4996170;28;20034;-74
2023/09/13 04:06:16;;;;;;;21.88;19.55;;;;;;;;;;5013650;28;20042;-74
2023/09/13 04:08:41;;;;;;;22.65;19.00;;;;;;;;;;4992478;28;20034;-74
2023/09/13 04:11:08;;;;;;;21.20;18.88;;;;;;;;;;5000765;28;20030;-74
2023/09/13 04:13:34;;;;;;;22.08;19.88;;;;;;;;;;4996395;28;20045;-75
2023/09/13 04:16:07;;;;;;;21.10;18.90;;;;;;;;;;4986979;28;20038;-75
2023/09/13 04:18:33;;;;;;;20.83;18.73;;;;;;;;;;5003560;28;20046;-75
2023/09/13 04:20:59;;;;;;;20.58;18.65;;;;;;;;;;5020486;28;20496;-75
2023/09/13 04:23:25;;;;;;;20.58;18.60;;;;;;;;;;5013780;28;20096;-74
2023/09/13 04:25:51;;;;;;;21.67;19.38;;;;;;;;;;5003017;28;20069;-75
2023/09/13 04:28:17;;;;;;;21.23;19.13;;;;;;;;;;5000790;28;20552;-74
2023/09/13 04:30:43;;;;;;;22.10;19.23;;;;;;;;;;5010420;28;20033;-75
2023/09/13 04:33:08;;;;;;;21.10;19.10;;;;;;;;;;4999221;28;20045;-76
2023/09/13 04:35:34;;;;;;;24.17;20.10;;;;;;;;;;5004678;28;20030;-74
2023/09/13 04:38:00;;;;;;;22.10;19.80;;;;;;;;;;4982356;28;20042;-75
2023/09/13 04:40:26;;;;;;;21.50;19.27;;;;;;;;;;5016186;28;20042;-74
2023/09/13 04:43:16;;;;;;;24.75;20.95;;;;;;;;;;4992090;28;20254;-74
2023/09/13 04:45:42;;;;;;;23.30;20.33;;;;;;;;;;5002732;28;20042;-74
2023/09/13 04:48:08;;;;;;;22.65;19.90;;;;;;;;;;4991478;28;20088;-74
2023/09/13 04:50:35;;;;;;;21.50;19.27;;;;;;;;;;5014808;28;20100;-74
2023/09/13 04:53:00;;;;;;;24.75;20.88;;;;;;;;;;5000604;28;20061;-75
2023/09/13 04:55:27;;;;;;;25.20;21.23;;;;;;;;;;5002672;28;20068;-75
2023/09/13 04:57:52;;;;;;;24.40;21.75;;;;;;;;;;5001409;28;20065;-75
2023/09/13 05:00:18;;;;;;;22.48;20.10;;;;;;;;;;4997535;28;20117;-75
2023/09/13 05:02:44;;;;;;;28.10;21.90;;;;;;;;;;5000854;28;20049;-74
2023/09/13 05:05:09;;;;;;;26.70;20.42;;;;;;;;;;5004481;28;20033;-74
2023/09/13 05:07:35;;;;;;;23.15;20.75;;;;;;;;;;5000284;28;21509;-74
2023/09/13 05:10:00;;;;;;;27.38;22.55;;;;;;;;;;5005098;28;20034;-75
2023/09/13 05:12:26;;;;;;;23.25;20.75;;;;;;;;;;5003227;28;20033;-74
2023/09/13 05:14:52;;;;;;;22.23;19.77;;;;;;;;;;4998025;28;20042;-75
2023/09/13 05:17:17;;;;;;;24.20;21.17;;;;;;;;;;5003288;28;20057;-74
2023/09/13 05:19:43;;;;;;;23.58;21.00;;;;;;;;;;4992423;28;20611;-75
2023/09/13 05:22:08;;;;;;;22.85;20.45;;;;;;;;;;4996459;28;20069;-75
2023/09/13 05:24:34;;;;;;;27.20;22.42;;;;;;;;;;4999778;28;20038;-74
2023/09/13 05:27:00;;;;;;;25.90;21.77;;;;;;;;;;5005442;28;20049;-74
2023/09/13 05:29:25;;;;;;;26.00;21.95;;;;;;;;;;4992156;28;20037;-74
2023/09/13 05:31:51;;;;;;;23.17;20.75;;;;;;;;;;5001432;28;20053;-75
2023/09/13 05:34:16;;;;;;;24.38;21.15;;;;;;;;;;5000069;28;20036;-75
2023/09/13 05:36:42;;;;;;;22.77;20.27;;;;;;;;;;5000798;28;20780;-74
2023/09/13 05:39:08;;;;;;;22.85;20.08;;;;;;;;;;4995171;28;20491;-75
2023/09/13 05:41:34;;;;;;;23.48;20.75;;;;;;;;;;5000064;28;20091;-74
2023/09/13 05:44:00;;;;;;;22.27;19.75;;;;;;;;;;4998168;28;20041;-75
2023/09/13 05:46:25;;;;;;;21.60;19.23;;;;;;;;;;5003127;28;20037;-74
2023/09/13 05:48:51;;;;;;;21.67;19.40;;;;;;;;;;5001225;28;20041;-75
2023/09/13 05:51:19;;;;;;;23.63;19.58;;;;;;;;;;5001166;28;20041;-75
2023/09/13 05:53:45;;;;;;;21.92;19.67;;;;;;;;;;5012927;28;20041;-74
2023/09/13 05:56:11;;;;;;;21.02;19.13;;;;;;;;;;5005968;28;20041;-74
2023/09/13 05:58:37;;;;;;;23.50;21.00;;;;;;;;;;5002300;28;20417;-75
2023/09/13 06:01:03;;;;;;;21.63;18.90;;;;;;;;;;5004191;28;20030;-75
2023/09/13 06:03:30;;;;;;;21.42;19.25;;;;;;;;;;4993044;28;20119;-75
2023/09/13 06:05:56;;;;;;;21.38;19.27;;;;;;;;;;4999944;28;20076;-75
2023/09/13 06:08:22;;;;;;;21.17;18.98;;;;;;;;;;4993225;28;20501;-74
2023/09/13 06:10:48;;;;;;;21.35;19.08;;;;;;;;;;5014466;28;20429;-75
2023/09/13 06:13:15;;;;;;;20.38;18.27;;;;;;;;;;4998237;28;20038;-75
2023/09/13 06:15:41;;;;;;;22.17;18.88;;;;;;;;;;4996185;28;20044;-75
2023/09/13 06:18:07;;;;;;;23.08;19.42;;;;;;;;;;4996090;28;20438;-74
2023/09/13 06:20:33;;;;;;;21.42;19.20;;;;;;;;;;4997258;28;20038;-74
2023/09/13 06:22:59;;;;;;;21.17;18.77;;;;;;;;;;5000539;28;20049;-75
2023/09/13 06:25:24;;;;;;;19.52;17.63;;;;;;;;;;5000904;28;20033;-75
2023/09/13 06:27:50;;;;;;;21.08;18.88;;;;;;;;;;4996194;28;20034;-75
2023/09/13 06:30:16;;;;;;;20.45;18.48;;;;;;;;;;4999496;28;20034;-75
2023/09/13 06:32:42;;;;;;;21.15;17.58;;;;;;;;;;4999067;28;20057;-75
2023/09/13 06:35:12;;;;;;;19.65;17.65;;;;;;;;;;5013149;28;20041;-75
2023/09/13 06:37:39;;;;;;;21.02;18.83;;;;;;;;;;5000050;28;20050;-74
2023/09/13 06:40:05;;;;;;;22.15;18.00;;;;;;;;;;4999417;28;20080;-75
2023/09/13 06:42:31;;;;;;;18.15;16.48;;;;;;;;;;5000225;28;20037;-75
2023/09/13 06:44:57;;;;;;;17.10;15.40;;;;;;;;;;4994717;28;20055;-75
2023/09/13 06:47:23;;;;;;;17.23;15.25;;;;;;;;;;5000740;28;20042;-74
2023/09/13 06:49:48;;;;;;;16.83;15.00;;;;;;;;;;4996616;28;20074;-75
2023/09/13 06:52:14;;;;;;;17.02;15.40;;;;;;;;;;4994296;28;20034;-75
2023/09/13 06:54:39;;;;;;;14.70;13.20;;;;;;;;;;4998928;28;20100;-75
2023/09/13 06:57:08;;;;;;;15.00;13.70;;;;;;;;;;5005366;28;20030;-75
2023/09/13 06:59:33;;;;;;;14.80;13.48;;;;;;;;;;4991056;28;20038;-75
2023/09/13 07:01:59;;;;;;;13.70;12.60;;;;;;;;;;4995097;28;20057;-75
2023/09/13 07:04:25;;;;;;;13.10;12.00;;;;;;;;;;4998282;28;20038;-74
2023/09/13 07:06:50;;;;;;;14.05;12.70;;;;;;;;;;4998648;28;20041;-75
2023/09/13 07:09:16;;;;;;;13.13;12.13;;;;;;;;;;4994793;28;20108;-75
2023/09/13 07:11:41;;;;;;;13.52;12.25;;;;;;;;;;4998187;28;20504;-75
2023/09/13 07:14:07;;;;;;;12.65;11.60;;;;;;;;;;5003542;28;20449;-75
2023/09/13 07:16:32;;;;;;;13.85;12.65;;;;;;;;;;4996367;28;20091;-76
2023/09/13 07:18:58;;;;;;;15.20;12.70;;;;;;;;;;4996597;28;20034;-75
2023/09/13 07:21:23;;;;;;;14.43;13.02;;;;;;;;;;4999907;28;20036;-75
2023/09/13 07:23:49;;;;;;;13.23;12.18;;;;;;;;;;4996880;28;20044;-75
2023/09/13 07:26:14;;;;;;;13.98;12.52;;;;;;;;;;4994504;28;20285;-75
2023/09/13 07:28:40;;;;;;;14.55;13.35;;;;;;;;;;4991666;28;20536;-75
2023/09/13 07:31:10;;;;;;;14.07;12.85;;;;;;;;;;4999287;28;20060;-74
2023/09/13 07:33:36;;;;;;;13.98;12.57;;;;;;;;;;5006632;28;20516;-74
2023/09/13 07:36:01;;;;;;;13.15;12.15;;;;;;;;;;4997327;28;20045;-75
2023/09/13 07:38:27;;;;;;;12.85;11.82;;;;;;;;;;4995713;28;20034;-74
2023/09/13 07:40:53;;;;;;;14.45;13.07;;;;;;;;;;4995602;28;20380;-75
2023/09/13 07:43:19;;;;;;;13.45;12.32;;;;;;;;;;4995906;28;20402;-75
2023/09/13 07:45:47;;;;;;;13.95;12.65;;;;;;;;;;4997953;28;20025;-75
2023/09/13 07:48:13;;;;;;;14.73;12.82;;;;;;;;;;4997364;28;20038;-74
2023/09/13 07:50:44;;;;;;;13.13;12.02;;;;;;;;;;4997512;28;20036;-74
2023/09/13 07:53:11;;;;;;;13.45;12.25;;;;;;;;;;5000430;28;20040;-74
2023/09/13 07:55:37;;;;;;;13.30;12.20;;;;;;;;;;4997405;28;20034;-75
2023/09/13 07:58:04;;;;;;;12.93;11.82;;;;;;;;;;4997593;28;20033;-74
2023/09/13 08:00:30;;;;;;;12.70;11.60;;;;;;;;;;4978065;28;20038;-74
2023/09/13 08:02:56;;;;;;;12.18;11.20;;;;;;;;;;4999833;28;20056;-75
2023/09/13 08:05:23;;;;;;;12.77;11.52;;;;;;;;;;4998037;28;20085;-74
2023/09/13 08:07:48;;;;;;;12.20;11.20;;;;;;;;;;4998205;28;20061;-74
2023/09/13 08:10:14;;;;;;;12.43;11.35;;;;;;;;;;4998174;28;20034;-74
2023/09/13 08:12:41;;;;;;;12.38;11.27;;;;;;;;;;4998788;28;20037;-74
2023/09/13 08:15:07;;;;;;;12.52;11.63;;;;;;;;;;5016492;28;20044;-74
2023/09/13 08:17:33;;;;;;;13.32;11.50;;;;;;;;;;4999800;28;20038;-74
2023/09/13 08:20:00;;;;;;;12.18;11.18;;;;;;;;;;4998700;28;20065;-74
2023/09/13 08:22:26;;;;;;;13.82;11.80;;;;;;;;;;5013803;28;20569;-76
2023/09/13 08:24:51;;;;;;;12.43;11.32;;;;;;;;;;4996489;28;20120;-75
2023/09/13 08:27:17;;;;;;;12.18;11.07;;;;;;;;;;4998278;28;20348;-74
2023/09/13 08:29:42;;;;;;;12.88;11.68;;;;;;;;;;4999437;28;20441;-74
2023/09/13 08:32:08;;;;;;;11.90;10.95;;;;;;;;;;4999687;28;20069;-74
2023/09/13 08:34:35;;;;;;;12.48;11.38;;;;;;;;;;4999065;28;20072;-74
2023/09/13 08:37:01;;;;;;;12.45;11.35;;;;;;;;;;4996430;28;20034;-74
2023/09/13 08:39:27;;;;;;;11.10;10.10;;;;;;;;;;5002506;28;20101;-74
2023/09/13 08:41:54;;;;;;;12.15;11.05;;;;;;;;;;5001869;28;20563;-75
2023/09/13 08:44:20;;;;;;;12.02;10.15;;;;;;;;;;4999677;28;20069;-74
2023/09/13 08:46:57;;;;;;;11.50;10.50;;;;;;;;;;4999438;28;20068;-74
2023/09/13 08:49:23;;;;;;;9.85;9.15;;;;;;;;;;4999127;28;20104;-74
2023/09/13 08:51:52;;;;;;;11.50;10.10;;;;;;;;;;4996185;28;20334;-74
2023/09/13 08:54:19;;;;;;;11.05;10.15;;;;;;;;;;4998482;28;20501;-74
2023/09/13 08:56:45;;;;;;;11.00;10.20;;;;;;;;;;4999286;28;20437;-74
2023/09/13 08:59:15;;;;;;;11.18;10.30;;;;;;;;;;5001196;28;20257;-74
2023/09/13 09:01:54;;;;;;;11.30;10.40;;;;;;;;;;4996456;28;20053;-74
2023/09/13 09:04:20;;;;;;;11.75;10.80;;;;;;;;;;4998136;28;20064;-74
2023/09/13 09:06:47;;;;;;;10.60;9.82;;;;;;;;;;4998853;28;20466;-74
2023/09/13 09:09:14;;;;;;;10.60;9.70;;;;;;;;;;4998746;28;20053;-74
2023/09/13 09:11:42;;;;;;;11.07;10.27;;;;;;;;;;4998355;28;20422;-74
2023/09/13 09:14:10;;;;;;;10.15;9.45;;;;;;;;;;5001328;28;20041;-74
2023/09/13 09:16:38;;;;;;;11.40;10.50;;;;;;;;;;5008827;28;20117;-75
2023/09/13 09:19:05;;;;;;;12.20;11.20;;;;;;;;;;4996532;28;20121;-74
2023/09/13 09:21:35;;;;;;;11.80;10.85;;;;;;;;;;4997873;28;20436;-74
2023/09/13 09:24:01;;;;;;;11.15;10.13;;;;;;;;;;4998969;28;20034;-74
2023/09/13 09:26:26;;;;;;;11.43;10.52;;;;;;;;;;4999190;28;20052;-74
2023/09/13 09:28:53;;;;;;;11.27;10.48;;;;;;;;;;4993920;28;21053;-74
2023/09/13 09:31:24;;;;;;;11.60;10.70;;;;;;;;;;5001301;28;20030;-74
2023/09/13 09:34:02;;;;;;;11.43;10.52;;;;;;;;;;4997628;28;20042;-74
2023/09/13 09:36:33;;;;;;;11.67;10.60;;;;;;;;;;4992873;28;20375;-74
2023/09/13 09:39:00;;;;;;;11.02;9.85;;;;;;;;;;4998415;28;20042;-74
2023/09/13 09:41:31;;;;;;;10.25;9.55;;;;;;;;;;4999041;28;20030;-74
2023/09/13 09:43:57;;;;;;;11.43;10.45;;;;;;;;;;4997045;28;20124;-76
2023/09/13 09:46:23;;;;;;;11.45;10.48;;;;;;;;;;4998348;28;20116;-74
2023/09/13 09:48:51;;;;;;;10.43;9.73;;;;;;;;;;4996731;28;20493;-74
2023/09/13 09:51:16;;;;;;;11.20;10.30;;;;;;;;;;4992034;28;20053;-74
2023/09/13 09:53:42;;;;;;;12.00;10.82;;;;;;;;;;4994930;28;20034;-74
2023/09/13 09:56:10;;;;;;;11.35;10.23;;;;;;;;;;5013471;28;20038;-74
2023/09/13 09:58:36;;;;;;;12.30;11.30;;;;;;;;;;4994064;28;20088;-74
2023/09/13 10:01:05;;;;;;;12.05;11.13;;;;;;;;;;4996835;28;20445;-74
2023/09/13 10:03:35;;;;;;;12.50;11.50;;;;;;;;;;4995106;28;20037;-74
2023/09/13 10:06:07;;;;;;;11.88;10.88;;;;;;;;;;4995197;28;20037;-74
2023/09/13 10:08:40;;;;;;;14.48;10.93;;;;;;;;;;4990883;28;20410;-74
2023/09/13 10:11:07;;;;;;;12.15;11.15;;;;;;;;;;4993832;28;20037;-74
2023/09/13 10:13:33;;;;;;;12.48;11.30;;;;;;;;;;4997730;28;20038;-74
2023/09/13 10:16:04;;;;;;;11.40;10.50;;;;;;;;;;4991543;28;20048;-74
2023/09/13 10:18:35;;;;;;;11.52;10.63;;;;;;;;;;4997908;28;20030;-74
2023/09/13 10:21:04;;;;;;;11.57;10.50;;;;;;;;;;4995651;28;20401;-74
2023/09/13 10:23:38;;;;;;;12.48;11.27;;;;;;;;;;5008377;28;20041;-74
2023/09/13 10:26:07;;;;;;;11.52;10.52;;;;;;;;;;5001149;28;20421;-74
2023/09/13 10:28:35;;;;;;;;;;;;;;;;;;5001315;28;20372;-74
2023/09/13 10:31:03;;;;;;;12.02;11.02;;;;;;;;;;4993937;28;20124;-75
2023/09/13 10:33:32;;;;;;;12.77;11.60;;;;;;;;;;4994670;28;20069;-75
2023/09/13 10:35:59;;;;;;;11.73;10.60;;;;;;;;;;4994376;28;20580;-74
2023/09/13 10:38:46;;;;;;;11.88;10.68;;;;;;;;;;4985941;28;20128;-75
2023/09/13 10:41:17;;;;;;;11.90;10.68;;;;;;;;;;4988703;28;20046;-75
2023/09/13 10:43:44;;;;;;;12.77;11.48;;;;;;;;;;4992501;28;20049;-74
2023/09/13 10:46:10;;;;;;;12.02;10.75;;;;;;;;;;4992428;28;20050;-75
2023/09/13 10:48:38;;;;;;;10.43;9.63;;;;;;;;;;4988791;28;20041;-75
2023/09/13 10:51:04;;;;;;;10.98;9.90;;;;;;;;;;4989834;28;20535;-75
2023/09/13 10:53:31;;;;;;;10.43;9.57;;;;;;;;;;4991369;28;20042;-75
2023/09/13 10:55:57;;;;;;;9.90;9.20;;;;;;;;;;4990314;28;20030;-75
2023/09/13 10:58:24;;;;;;;9.82;9.02;;;;;;;;;;5010190;28;20046;-74
2023/09/13 11:00:53;;;;;;;9.80;8.90;;;;;;;;;;4990285;28;20085;-75
2023/09/13 11:03:19;;;;;;;10.23;9.43;;;;;;;;;;4990766;28;20499;-74
2023/09/13 11:05:52;;;;;;;9.43;8.70;;;;;;;;;;4992852;28;20037;-75
2023/09/13 11:08:31;;;;;;;10.02;9.20;;;;;;;;;;4993124;28;20099;-74
2023/09/13 11:11:26;;;;;;;10.25;9.55;;;;;;;;;;5014119;28;20034;-75
2023/09/13 11:13:55;;;;;;;9.80;9.07;;;;;;;;;;4970788;28;20057;-75
2023/09/13 11:16:22;;;;;;;;;;;;;;;;;;4979370;28;20050;-75
2023/09/13 11:18:49;;;;;;;10.48;9.65;;;;;;;;;;4980957;28;19925;-75
2023/09/13 11:21:26;;;;;;;10.20;9.40;;;;;;;;;;4979998;28;20546;-75
2023/09/13 11:23:55;;;;;;;9.80;9.00;;;;;;;;;;4976385;28;20495;-75
2023/09/13 11:26:48;;;;;;;9.80;9.10;;;;;;;;;;4976799;28;20047;-74
2023/09/13 11:29:20;;;;;;;10.45;9.65;;;;;;;;;;4976362;28;20375;-75
2023/09/13 11:31:56;;;;;;;10.18;9.38;;;;;;;;;;4975061;28;20105;-75
2023/09/13 11:34:22;;;;;;;10.13;9.30;;;;;;;;;;4979114;28;20042;-75
2023/09/13 11:36:59;;;;;;;10.88;9.98;;;;;;;;;;4976837;28;20638;-75
2023/09/13 11:39:24;;;;;;;9.80;9.10;;;;;;;;;;4976501;28;20042;-75
2023/09/13 11:41:53;;;;;;;10.23;9.43;;;;;;;;;;4976322;28;20641;-75
2023/09/13 11:44:21;;;;;;;10.50;9.70;;;;;;;;;;4979937;28;20061;-75
2023/09/13 11:46:49;;;;;;;10.40;9.55;;;;;;;;;;4978609;28;20459;-75
2023/09/13 11:49:24;;;;;;;10.00;9.30;;;;;;;;;;4979775;28;20326;-75
2023/09/13 11:51:59;;;;;;;10.52;9.52;;;;;;;;;;4997787;28;20557;-75
2023/09/13 11:54:25;;;;;;;9.95;9.05;;;;;;;;;;5017274;28;20041;-76
2023/09/13 11:56:53;;;;;;;10.88;9.90;;;;;;;;;;5003177;28;20025;-76
2023/09/13 11:59:30;;;;;;;10.70;10.00;;;;;;;;;;5009576;28;20473;-75
2023/09/13 12:01:57;;;;;;;10.80;9.98;;;;;;;;;;5000377;28;20062;-75
2023/09/13 12:04:26;;;;;;;11.55;10.55;;;;;;;;;;5001713;28;20042;-75
2023/09/13 12:06:56;;;;;;;10.88;10.07;;;;;;;;;;4997986;28;20126;-75
2023/09/13 12:09:23;;;;;;;11.85;10.57;;;;;;;;;;5019280;28;20021;-75
2023/09/13 12:11:51;;;;;;;10.98;10.18;;;;;;;;;;5003084;28;20087;-75
2023/09/13 12:14:18;;;;;;;11.07;10.18;;;;;;;;;;5015660;28;20132;-75
2023/09/13 12:16:51;;;;;;;10.75;9.85;;;;;;;;;;4999435;28;20038;-75
2023/09/13 12:19:16;;;;;;;11.20;10.40;;;;;;;;;;5000985;28;20049;-75
2023/09/13 12:21:46;;;;;;;11.55;10.45;;;;;;;;;;5003567;28;20026;-75
2023/09/13 12:24:23;;;;;;;11.40;10.50;;;;;;;;;;5001208;28;20508;-76
2023/09/13 12:26:52;;;;;;;11.27;10.18;;;;;;;;;;5016905;28;20042;-75
2023/09/13 12:29:18;;;;;;;11.52;10.63;;;;;;;;;;5001854;28;20026;-75
2023/09/13 12:31:44;;;;;;;10.80;10.00;;;;;;;;;;4996908;28;20048;-75
2023/09/13 12:34:10;;;;;;;10.68;9.77;;;;;;;;;;4997575;28;20041;-75
2023/09/13 12:36:36;;;;;;;11.00;10.10;;;;;;;;;;5002350;28;20041;-75
2023/09/13 12:39:02;;;;;;;11.63;10.45;;;;;;;;;;4999053;28;20041;-75
2023/09/13 12:41:30;;;;;;;10.75;9.93;;;;;;;;;;5001477;28;20049;-75
2023/09/13 12:43:57;;;;;;;11.55;10.65;;;;;;;;;;5014817;28;20045;-75
2023/09/13 12:46:25;;;;;;;11.00;10.10;;;;;;;;;;4999238;28;20121;-75
2023/09/13 12:48:51;;;;;;;11.90;11.00;;;;;;;;;;5001378;28;20033;-75
2023/09/13 12:51:20;;;;;;;11.05;10.10;;;;;;;;;;5001768;28;20528;-75
2023/09/13 12:53:46;;;;;;;11.20;10.40;;;;;;;;;;5001259;28;20034;-76
2023/09/13 12:56:13;;;;;;;11.52;10.60;;;;;;;;;;4998568;28;20354;-76
2023/09/13 12:58:54;;;;;;;11.50;10.70;;;;;;;;;;5000183;28;20533;-76
2023/09/13 13:01:21;;;;;;;10.20;9.40;;;;;;;;;;5000758;28;20045;-75
2023/09/13 13:04:01;;;;;;;10.70;10.00;;;;;;;;;;4997761;28;20040;-75
2023/09/13 13:06:31;;;;;;;10.55;9.70;;;;;;;;;;4998566;28;20052;-76
2023/09/13 13:09:12;;;;;;;10.27;9.38;;;;;;;;;;4998746;28;20030;-75
2023/09/13 13:11:40;;;;;;;11.27;10.15;;;;;;;;;;4995758;28;20042;-76
2023/09/13 13:14:13;;;;;;;;;;;;;;;;;;4997549;28;20041;-75
2023/09/13 13:16:39;;;;;;;10.52;9.82;;;;;;;;;;4999937;28;20016;-75
2023/09/13 13:19:05;;;;;;;11.07;9.90;;;;;;;;;;4999403;28;20569;-76
2023/09/13 13:21:31;;;;;;;10.80;9.80;;;;;;;;;;5001006;28;20034;-76
2023/09/13 13:23:57;;;;;;;10.50;9.75;;;;;;;;;;5012598;28;20314;-75
2023/09/13 13:26:22;;;;;;;10.95;10.05;;;;;;;;;;5000598;28;20105;-76
2023/09/13 13:28:49;;;;;;;10.75;9.90;;;;;;;;;;4999284;28;20099;-75
2023/09/13 13:31:17;;;;;;;10.60;9.90;;;;;;;;;;4998533;28;20038;-76
2023/09/13 13:33:43;;;;;;;10.45;9.40;;;;;;;;;;4995206;28;20029;-76
2023/09/13 13:36:09;;;;;;;9.88;9.07;;;;;;;;;;4994955;28;20038;-75
2023/09/13 13:38:35;;;;;;;10.05;9.38;;;;;;;;;;4994988;28;20389;-75
2023/09/13 13:41:06;;;;;;;10.38;9.55;;;;;;;;;;4999144;28;20166;-75
2023/09/13 13:43:33;;;;;;;9.65;8.93;;;;;;;;;;4995697;28;20041;-75
2023/09/13 13:46:03;;;;;;;10.02;9.23;;;;;;;;;;4998455;28;20494;-75
2023/09/13 13:48:30;;;;;;;10.23;9.43;;;;;;;;;;4999282;28;20054;-75
2023/09/13 13:50:57;;;;;;;10.05;9.27;;;;;;;;;;4996369;28;20033;-75
2023/09/13 13:53:26;;;;;;;10.10;9.45;;;;;;;;;;4997608;28;20050;-75
2023/09/13 13:55:55;;;;;;;10.52;9.73;;;;;;;;;;4994410;28;20069;-75
2023/09/13 13:58:21;;;;;;;10.65;9.85;;;;;;;;;;4997306;28;20045;-75
2023/09/13 14:00:48;;;;;;;11.48;10.55;;;;;;;;;;4995047;28;20294;-75
2023/09/13 14:03:14;;;;;;;10.40;9.57;;;;;;;;;;4998524;28;20407;-75
2023/09/13 14:05:40;;;;;;;10.48;9.45;;;;;;;;;;5000047;28;20042;-75
2023/09/13 14:08:06;;;;;;;9.90;9.10;;;;;;;;;;4994529;28;20046;-75
2023/09/13 14:10:39;;;;;;;11.07;10.10;;;;;;;;;;4999997;28;20317;-75
2023/09/13 14:13:05;;;;;;;10.45;9.65;;;;;;;;;;4999057;28;20065;-75
2023/09/13 14:15:32;;;;;;;9.88;9.07;;;;;;;;;;4998380;28;20037;-76
2023/09/13 14:17:57;;;;;;;11.15;10.07;;;;;;;;;;4994897;28;20042;-75
2023/09/13 14:20:23;;;;;;;10.32;9.35;;;;;;;;;;4997660;28;20042;-75
2023/09/13 14:22:48;;;;;;;10.50;8.90;;;;;;;;;;4997314;28;20048;-75